Plainedge, New York
Current Conditions -  °F | °C
As of 9:53 AM on Wednesday 22 Oct 2014 (Local Time) from KFRG Reporting Station
Light Rain Light Rain  
Wind Chill: 55°   Ceiling: 1100
Heat Index: 55°   Visibility: 6mi
Dew Point: 52°   Wind: 16mph
Humidity: 89%   Direction: 40°NE
Pressure: 29.92"   Gusts: 23mph
Location:  40.7255°N, 73.5165°W
Report Text: KFRG 221353Z 04014G20KT 6SM -RA BR BKN011 BKN032 OVC070 13/11 A2992 RMK AO2 SLP132 P0015 T01280111
Loading
Personal Weather Stations






























Interactive Weather Map
Tropical Storm Tracking
New forecast layout! Learn more

10-Day Weather Forecast

Advertisements
Track Severe Weather on mobile